http://www.schuttertalwetter.de (Christian Eisenberg)
Wetterdaten: aktuell Samstag, 24.02.2018 18:50
Datum Zeit Temp. A. Luftdruck Regen Wind Richtung Richtung Sonnenschein Solar Windben
24.02.2018 18:50 1,9 C 1018,1 hPa 0,0 l/m 4,8 km/h (1 Bft) N-NW 347 0 min 0 W/m 4,8 km/h (1 Bft)
24.02.2018 17:50 3,2 C 1017,4 hPa 0,0 l/m 1,6 km/h (1 Bft) S-SO 157 5 min 14 W/m 6,4 km/h (2 Bft)
24.02.2018 16:50 4,8 C 1016,7 hPa 0,0 l/m 4,8 km/h (1 Bft) W-NW 292 60 min 137 W/m 12,9 km/h (3 Bft)
24.02.2018 15:50 4,8 C 1016,4 hPa 0,0 l/m 9,7 km/h (2 Bft) N-NW 337 60 min 308 W/m 33,8 km/h (5 Bft)
24.02.2018 14:50 5,0 C 1016,1 hPa 0,0 l/m 9,7 km/h (2 Bft) S-SO 157 60 min 420 W/m 20,9 km/h (4 Bft)
24.02.2018 13:50 4,4 C 1016,3 hPa 0,0 l/m 12,9 km/h (3 Bft) NW 315 60 min 494 W/m 32,2 km/h (5 Bft)
24.02.2018 12:50 3,4 C 1016,6 hPa 0,0 l/m 8,0 km/h (2 Bft) NW 315 60 min 508 W/m 20,9 km/h (4 Bft)
24.02.2018 11:50 1,8 C 1017,0 hPa 0,0 l/m 8,0 km/h (2 Bft) N 360 60 min 476 W/m 20,9 km/h (4 Bft)
24.02.2018 10:50 0,1 C 1017,0 hPa 0,0 l/m 9,7 km/h (2 Bft) NW 315 15 min 439 W/m 25,7 km/h (4 Bft)
24.02.2018 09:50 -0,4 C 1016,9 hPa 0,0 l/m 4,8 km/h (1 Bft) NW 315 0 min 114 W/m 16,1 km/h (3 Bft)
24.02.2018 08:50 -0,4 C 1016,4 hPa 0,0 l/m 6,4 km/h (2 Bft) N-NW 337 0 min 62 W/m 19,3 km/h (3 Bft)
24.02.2018 07:50 -0,2 C 1016,1 hPa 0,0 l/m 6,4 km/h (2 Bft) N-NW 337 0 min 12 W/m 19,3 km/h (3 Bft)
24.02.2018 06:50 -0,1 C 1015,5 hPa 0,0 l/m 8,0 km/h (2 Bft) N 360 0 min 0 W/m 19,3 km/h (3 Bft)
24.02.2018 05:50 0,1 C 1015,6 hPa 0,0 l/m 1,6 km/h (1 Bft) N-NW 337 0 min 0 W/m 6,4 km/h (2 Bft)
24.02.2018 04:50 0,2 C 1015,5 hPa 0,0 l/m 3,2 km/h (1 Bft) NW 315 0 min 0 W/m 9,7 km/h (2 Bft)
24.02.2018 03:50 0,3 C 1015,5 hPa 0,0 l/m 3,2 km/h (1 Bft) NW 315 0 min 0 W/m 8,0 km/h (2 Bft)
24.02.2018 02:50 0,5 C 1015,6 hPa 0,0 l/m 4,8 km/h (1 Bft) S 180 0 min 0 W/m 9,7 km/h (2 Bft)
24.02.2018 01:50 0,7 C 1015,9 hPa 0,0 l/m 6,4 km/h (2 Bft) NW 315 0 min 0 W/m 16,1 km/h (3 Bft)
24.02.2018 00:50 0,8 C 1016,3 hPa 0,0 l/m 8,0 km/h (2 Bft) N-NW 337 0 min 0 W/m 16,1 km/h (3 Bft)
23.02.2018 23:50 0,9 C 1015,9 hPa 0,0 l/m 6,4 km/h (2 Bft) NW 315 0 min 0 W/m 17,7 km/h (3 Bft)
23.02.2018 22:50 0,8 C 1016,0 hPa 0,0 l/m 1,6 km/h (1 Bft) SO 135 0 min 0 W/m 16,1 km/h (3 Bft)
23.02.2018 21:50 0,8 C 1016,5 hPa 0,0 l/m 6,4 km/h (2 Bft) S-SO 157 0 min 0 W/m 12,9 km/h (3 Bft)
23.02.2018 20:50 0,7 C 1016,2 hPa 0,0 l/m 8,0 km/h (2 Bft) N-NW 337 0 min 0 W/m 19,3 km/h (3 Bft)
23.02.2018 19:50 0,5 C 1016,1 hPa 0,0 l/m 6,4 km/h (2 Bft) N 360 0 min 0 W/m 17,7 km/h (3 Bft)
23.02.2018 19:00 0,3 C 1016,2 hPa 0,0 l/m 4,8 km/h (1 Bft) O-NO 67 0 min 0 W/m 11,3 km/h (2 Bft)
_ Min-Zeit 10:00 04:10 - 18:40 - - - - 18:50
Minimum _ -0,4 C 1015,3 hPa - 1,6 km/h (1 Bft) - - - - 4,8 km/h (1 Bft)
_ Max-Zeit 16:20 18:45 18:50 12:05 - - 16:55 13:10 05:45
Maximum _ 5,2 C 1018,2 hPa 0,0 l/m 16,1 km/h
N-NW (3 Bft)
- - 5 min 510 W/m 43,5 km/h
NW (6 Bft)
Durchschnitt _ 1,4 C 1016,3 hPa #0,0 l/m 6,6 km/h (2 Bft) NW - #6:20 h 269 W/m 17,5 km/h (3 Bft)